25VA weather

Toddsbury Farm Airport
Aylett, Virginia, United States

Public forecast

Using degrees Fahrenheit for public forecast. Weather courtesy of forecast.io.

Closest aviation weather report (METAR) to Toddsbury Farm Airport

Closest report is Tappahannock-Essex County Airport, 10.2 nm (18.9 km) ENE. Retrieved 2019/10/18 07:35 UTC (0 seconds ago):

KXSA 180735Z AUTO 27003KT 10SM CLR 08/02 A2989 RMK AO2 T00810022

Closest aviation forecast (TAF) to Toddsbury Farm Airport

Closest forecast is Richmond International Airport, 21.4 nm (39.6 km) SSW. Retrieved 2019/10/18 06:27 UTC (48 minutes ago):

TAF KRIC 180525Z 1806/1906 29008KT P6SM SKC FM181400 32006KT P6SM SKC FM182300 VRB03KT P6SM SKC